sensor_id;sensor_type;location;lat;lon;timestamp;P1;durP1;ratioP1;P2;durP2;ratioP2
30307;SDS011;17114;52.314;8.910;2022-10-16T00:01:19;5.00;;;3.30;;
30307;SDS011;17114;52.314;8.910;2022-10-16T00:03:48;4.32;;;2.85;;
30307;SDS011;17114;52.314;8.910;2022-10-16T00:06:16;6.38;;;2.85;;
30307;SDS011;17114;52.314;8.910;2022-10-16T00:08:44;5.03;;;3.15;;
30307;SDS011;17114;52.314;8.910;2022-10-16T00:11:22;4.53;;;3.05;;
30307;SDS011;17114;52.314;8.910;2022-10-16T00:13:52;5.28;;;2.88;;
30307;SDS011;17114;52.314;8.910;2022-10-16T00:16:22;8.63;;;3.15;;
30307;SDS011;17114;52.314;8.910;2022-10-16T00:18:49;6.18;;;3.22;;
30307;SDS011;17114;52.314;8.910;2022-10-16T00:21:18;5.43;;;3.10;;
30307;SDS011;17114;52.314;8.910;2022-10-16T00:23:46;6.40;;;3.67;;
30307;SDS011;17114;52.314;8.910;2022-10-16T00:26:17;10.45;;;4.28;;
30307;SDS011;17114;52.314;8.910;2022-10-16T00:28:45;7.97;;;3.65;;
30307;SDS011;17114;52.314;8.910;2022-10-16T00:31:13;7.65;;;4.00;;
30307;SDS011;17114;52.314;8.910;2022-10-16T00:33:41;10.82;;;3.90;;
30307;SDS011;17114;52.314;8.910;2022-10-16T00:36:10;7.72;;;4.18;;
30307;SDS011;17114;52.314;8.910;2022-10-16T00:38:39;13.10;;;4.13;;
30307;SDS011;17114;52.314;8.910;2022-10-16T00:41:06;6.65;;;4.43;;
30307;SDS011;17114;52.314;8.910;2022-10-16T00:43:50;8.50;;;3.95;;
30307;SDS011;17114;52.314;8.910;2022-10-16T00:46:35;11.35;;;4.55;;
30307;SDS011;17114;52.314;8.910;2022-10-16T00:49:05;9.45;;;4.22;;
30307;SDS011;17114;52.314;8.910;2022-10-16T00:51:45;6.70;;;4.03;;
30307;SDS011;17114;52.314;8.910;2022-10-16T00:54:21;5.75;;;4.03;;
30307;SDS011;17114;52.314;8.910;2022-10-16T00:56:51;7.32;;;3.97;;
30307;SDS011;17114;52.314;8.910;2022-10-16T00:59:24;7.07;;;4.40;;
30307;SDS011;17114;52.314;8.910;2022-10-16T01:02:18;9.00;;;4.18;;
30307;SDS011;17114;52.314;8.910;2022-10-16T01:04:49;6.32;;;3.80;;
30307;SDS011;17114;52.314;8.910;2022-10-16T01:13:04;10.18;;;4.10;;
30307;SDS011;17114;52.314;8.910;2022-10-16T01:15:52;9.18;;;4.13;;
30307;SDS011;17114;52.314;8.910;2022-10-16T01:18:34;9.55;;;4.38;;
30307;SDS011;17114;52.314;8.910;2022-10-16T01:21:06;7.88;;;4.45;;
30307;SDS011;17114;52.314;8.910;2022-10-16T01:23:41;8.00;;;4.10;;
30307;SDS011;17114;52.314;8.910;2022-10-16T01:29:20;10.27;;;4.50;;
30307;SDS011;17114;52.314;8.910;2022-10-16T01:31:59;15.43;;;5.00;;
30307;SDS011;17114;52.314;8.910;2022-10-16T01:34:38;12.25;;;4.72;;
30307;SDS011;17114;52.314;8.910;2022-10-16T01:37:20;6.85;;;4.00;;
30307;SDS011;17114;52.314;8.910;2022-10-16T01:40:14;7.78;;;4.00;;
30307;SDS011;17114;52.314;8.910;2022-10-16T01:42:55;7.35;;;4.50;;
30307;SDS011;17114;52.314;8.910;2022-10-16T01:45:29;7.10;;;3.92;;
30307;SDS011;17114;52.314;8.910;2022-10-16T01:48:00;8.73;;;4.30;;
30307;SDS011;17114;52.314;8.910;2022-10-16T01:50:31;6.72;;;4.60;;
30307;SDS011;17114;52.314;8.910;2022-10-16T01:53:02;8.60;;;4.47;;
30307;SDS011;17114;52.314;8.910;2022-10-16T01:55:32;14.05;;;4.82;;
30307;SDS011;17114;52.314;8.910;2022-10-16T01:58:02;8.23;;;4.10;;
30307;SDS011;17114;52.314;8.910;2022-10-16T02:00:33;6.60;;;3.55;;
30307;SDS011;17114;52.314;8.910;2022-10-16T02:03:03;7.78;;;4.63;;
30307;SDS011;17114;52.314;8.910;2022-10-16T02:05:37;6.90;;;4.57;;
30307;SDS011;17114;52.314;8.910;2022-10-16T02:08:11;9.57;;;4.30;;
30307;SDS011;17114;52.314;8.910;2022-10-16T02:10:39;8.68;;;4.40;;
30307;SDS011;17114;52.314;8.910;2022-10-16T02:13:07;8.23;;;5.07;;
30307;SDS011;17114;52.314;8.910;2022-10-16T02:15:38;11.38;;;5.25;;
30307;SDS011;17114;52.314;8.910;2022-10-16T02:18:05;9.15;;;4.80;;
30307;SDS011;17114;52.314;8.910;2022-10-16T02:20:34;8.43;;;4.82;;
30307;SDS011;17114;52.314;8.910;2022-10-16T02:23:09;17.35;;;5.57;;
30307;SDS011;17114;52.314;8.910;2022-10-16T02:25:41;9.65;;;5.03;;
30307;SDS011;17114;52.314;8.910;2022-10-16T02:28:17;9.82;;;5.15;;
30307;SDS011;17114;52.314;8.910;2022-10-16T02:30:51;9.82;;;4.65;;
30307;SDS011;17114;52.314;8.910;2022-10-16T02:33:26;8.95;;;4.68;;
30307;SDS011;17114;52.314;8.910;2022-10-16T02:35:54;10.02;;;4.50;;
30307;SDS011;17114;52.314;8.910;2022-10-16T02:38:23;9.45;;;4.63;;
30307;SDS011;17114;52.314;8.910;2022-10-16T02:40:50;9.63;;;4.60;;
30307;SDS011;17114;52.314;8.910;2022-10-16T02:43:18;13.05;;;4.70;;
30307;SDS011;17114;52.314;8.910;2022-10-16T02:45:46;10.18;;;4.65;;
30307;SDS011;17114;52.314;8.910;2022-10-16T02:48:13;10.98;;;4.43;;
30307;SDS011;17114;52.314;8.910;2022-10-16T02:50:41;10.48;;;4.47;;
30307;SDS011;17114;52.314;8.910;2022-10-16T02:53:07;8.40;;;4.65;;
30307;SDS011;17114;52.314;8.910;2022-10-16T02:55:38;12.65;;;4.28;;
30307;SDS011;17114;52.314;8.910;2022-10-16T02:58:59;6.95;;;4.80;;
30307;SDS011;17114;52.314;8.910;2022-10-16T03:01:28;10.60;;;4.63;;
30307;SDS011;17114;52.314;8.910;2022-10-16T03:03:55;10.38;;;4.85;;
30307;SDS011;17114;52.314;8.910;2022-10-16T03:06:22;10.52;;;5.25;;
30307;SDS011;17114;52.314;8.910;2022-10-16T03:08:49;13.13;;;5.57;;
30307;SDS011;17114;52.314;8.910;2022-10-16T03:11:16;10.52;;;5.45;;
30307;SDS011;17114;52.314;8.910;2022-10-16T03:13:43;9.35;;;4.95;;
30307;SDS011;17114;52.314;8.910;2022-10-16T03:16:10;12.00;;;5.18;;
30307;SDS011;17114;52.314;8.910;2022-10-16T03:18:36;9.10;;;5.07;;
30307;SDS011;17114;52.314;8.910;2022-10-16T03:21:03;12.48;;;5.70;;
30307;SDS011;17114;52.314;8.910;2022-10-16T03:23:30;9.40;;;5.30;;
30307;SDS011;17114;52.314;8.910;2022-10-16T03:25:57;11.57;;;5.32;;
30307;SDS011;17114;52.314;8.910;2022-10-16T03:28:24;12.52;;;5.47;;
30307;SDS011;17114;52.314;8.910;2022-10-16T03:30:51;11.25;;;5.70;;
30307;SDS011;17114;52.314;8.910;2022-10-16T03:33:17;12.38;;;5.53;;
30307;SDS011;17114;52.314;8.910;2022-10-16T03:35:50;15.07;;;5.80;;
30307;SDS011;17114;52.314;8.910;2022-10-16T03:38:18;11.13;;;5.68;;
30307;SDS011;17114;52.314;8.910;2022-10-16T03:40:46;10.95;;;5.07;;
30307;SDS011;17114;52.314;8.910;2022-10-16T03:43:13;11.57;;;5.25;;
30307;SDS011;17114;52.314;8.910;2022-10-16T03:45:44;14.05;;;4.75;;
30307;SDS011;17114;52.314;8.910;2022-10-16T03:48:11;9.50;;;4.80;;
30307;SDS011;17114;52.314;8.910;2022-10-16T03:50:38;9.70;;;4.70;;
30307;SDS011;17114;52.314;8.910;2022-10-16T03:53:05;11.13;;;4.60;;
30307;SDS011;17114;52.314;8.910;2022-10-16T03:55:32;7.95;;;4.95;;
30307;SDS011;17114;52.314;8.910;2022-10-16T03:57:58;11.02;;;4.68;;
30307;SDS011;17114;52.314;8.910;2022-10-16T04:00:25;9.38;;;4.80;;
30307;SDS011;17114;52.314;8.910;2022-10-16T04:02:52;7.00;;;4.45;;
30307;SDS011;17114;52.314;8.910;2022-10-16T04:05:19;8.57;;;4.53;;
30307;SDS011;17114;52.314;8.910;2022-10-16T04:07:46;11.05;;;5.10;;
30307;SDS011;17114;52.314;8.910;2022-10-16T04:10:13;10.50;;;4.47;;
30307;SDS011;17114;52.314;8.910;2022-10-16T04:12:40;8.50;;;4.30;;
30307;SDS011;17114;52.314;8.910;2022-10-16T04:15:07;7.50;;;3.70;;
30307;SDS011;17114;52.314;8.910;2022-10-16T04:17:34;7.03;;;4.72;;
30307;SDS011;17114;52.314;8.910;2022-10-16T04:20:01;5.85;;;3.80;;
30307;SDS011;17114;52.314;8.910;2022-10-16T04:22:28;6.82;;;3.67;;
30307;SDS011;17114;52.314;8.910;2022-10-16T04:24:55;5.50;;;3.58;;
30307;SDS011;17114;52.314;8.910;2022-10-16T04:27:22;6.03;;;3.63;;
30307;SDS011;17114;52.314;8.910;2022-10-16T04:29:49;6.47;;;3.60;;
30307;SDS011;17114;52.314;8.910;2022-10-16T04:32:16;6.43;;;4.00;;
30307;SDS011;17114;52.314;8.910;2022-10-16T04:34:43;7.78;;;3.63;;
30307;SDS011;17114;52.314;8.910;2022-10-16T04:37:10;8.20;;;3.65;;
30307;SDS011;17114;52.314;8.910;2022-10-16T04:39:36;4.82;;;3.08;;
30307;SDS011;17114;52.314;8.910;2022-10-16T04:42:03;6.35;;;3.22;;
30307;SDS011;17114;52.314;8.910;2022-10-16T04:44:30;5.05;;;3.35;;
30307;SDS011;17114;52.314;8.910;2022-10-16T04:46:59;9.45;;;3.47;;
30307;SDS011;17114;52.314;8.910;2022-10-16T04:49:26;6.25;;;3.63;;
30307;SDS011;17114;52.314;8.910;2022-10-16T04:51:52;6.35;;;2.90;;
30307;SDS011;17114;52.314;8.910;2022-10-16T04:54:19;5.03;;;2.88;;
30307;SDS011;17114;52.314;8.910;2022-10-16T04:56:46;9.15;;;3.42;;
30307;SDS011;17114;52.314;8.910;2022-10-16T04:59:14;7.18;;;3.65;;
30307;SDS011;17114;52.314;8.910;2022-10-16T05:01:41;6.20;;;3.20;;
30307;SDS011;17114;52.314;8.910;2022-10-16T05:04:08;8.50;;;2.88;;
30307;SDS011;17114;52.314;8.910;2022-10-16T05:06:35;4.82;;;2.80;;
30307;SDS011;17114;52.314;8.910;2022-10-16T05:09:02;5.63;;;2.90;;
30307;SDS011;17114;52.314;8.910;2022-10-16T05:11:30;4.25;;;3.03;;
30307;SDS011;17114;52.314;8.910;2022-10-16T05:13:57;6.70;;;3.30;;
30307;SDS011;17114;52.314;8.910;2022-10-16T05:16:24;5.47;;;2.80;;
30307;SDS011;17114;52.314;8.910;2022-10-16T05:18:51;7.75;;;2.95;;
30307;SDS011;17114;52.314;8.910;2022-10-16T05:21:25;7.88;;;2.67;;
30307;SDS011;17114;52.314;8.910;2022-10-16T05:23:52;7.38;;;3.13;;
30307;SDS011;17114;52.314;8.910;2022-10-16T05:26:20;5.20;;;2.83;;
30307;SDS011;17114;52.314;8.910;2022-10-16T05:28:47;4.72;;;2.60;;
30307;SDS011;17114;52.314;8.910;2022-10-16T05:31:15;6.45;;;2.95;;
30307;SDS011;17114;52.314;8.910;2022-10-16T05:33:42;4.55;;;2.47;;
30307;SDS011;17114;52.314;8.910;2022-10-16T05:36:10;5.30;;;2.33;;
30307;SDS011;17114;52.314;8.910;2022-10-16T05:38:37;4.93;;;2.45;;
30307;SDS011;17114;52.314;8.910;2022-10-16T05:41:05;3.83;;;2.17;;
30307;SDS011;17114;52.314;8.910;2022-10-16T05:43:32;4.78;;;2.20;;
30307;SDS011;17114;52.314;8.910;2022-10-16T05:46:00;5.18;;;2.20;;
30307;SDS011;17114;52.314;8.910;2022-10-16T05:48:29;2.95;;;2.40;;
30307;SDS011;17114;52.314;8.910;2022-10-16T05:51:00;3.25;;;1.80;;
30307;SDS011;17114;52.314;8.910;2022-10-16T05:53:30;2.83;;;1.95;;
30307;SDS011;17114;52.314;8.910;2022-10-16T05:55:58;5.32;;;2.03;;
30307;SDS011;17114;52.314;8.910;2022-10-16T05:58:28;6.72;;;2.33;;
30307;SDS011;17114;52.314;8.910;2022-10-16T06:00:57;6.07;;;2.15;;
30307;SDS011;17114;52.314;8.910;2022-10-16T06:03:26;2.83;;;1.95;;
30307;SDS011;17114;52.314;8.910;2022-10-16T06:05:53;7.78;;;2.28;;
30307;SDS011;17114;52.314;8.910;2022-10-16T06:08:21;3.88;;;2.25;;
30307;SDS011;17114;52.314;8.910;2022-10-16T06:10:49;3.17;;;2.00;;
30307;SDS011;17114;52.314;8.910;2022-10-16T06:13:30;3.25;;;1.80;;
30307;SDS011;17114;52.314;8.910;2022-10-16T06:15:58;3.60;;;2.00;;
30307;SDS011;17114;52.314;8.910;2022-10-16T06:18:26;2.90;;;1.98;;
30307;SDS011;17114;52.314;8.910;2022-10-16T06:20:54;3.22;;;2.10;;
30307;SDS011;17114;52.314;8.910;2022-10-16T06:23:22;6.90;;;2.15;;
30307;SDS011;17114;52.314;8.910;2022-10-16T06:25:49;5.97;;;2.00;;
30307;SDS011;17114;52.314;8.910;2022-10-16T06:28:16;4.70;;;1.60;;
30307;SDS011;17114;52.314;8.910;2022-10-16T06:30:43;3.05;;;1.75;;
30307;SDS011;17114;52.314;8.910;2022-10-16T06:33:10;3.53;;;1.92;;
30307;SDS011;17114;52.314;8.910;2022-10-16T06:35:37;4.13;;;1.60;;
30307;SDS011;17114;52.314;8.910;2022-10-16T06:38:04;6.65;;;1.77;;
30307;SDS011;17114;52.314;8.910;2022-10-16T06:40:31;2.78;;;1.50;;
30307;SDS011;17114;52.314;8.910;2022-10-16T06:42:58;2.83;;;1.70;;
30307;SDS011;17114;52.314;8.910;2022-10-16T06:45:24;2.97;;;1.67;;
30307;SDS011;17114;52.314;8.910;2022-10-16T06:47:51;5.57;;;2.15;;
30307;SDS011;17114;52.314;8.910;2022-10-16T06:50:18;2.65;;;1.30;;
30307;SDS011;17114;52.314;8.910;2022-10-16T06:52:45;4.28;;;1.50;;
30307;SDS011;17114;52.314;8.910;2022-10-16T06:55:12;4.15;;;1.42;;
30307;SDS011;17114;52.314;8.910;2022-10-16T06:57:39;5.90;;;1.55;;
30307;SDS011;17114;52.314;8.910;2022-10-16T07:00:05;6.05;;;1.60;;
30307;SDS011;17114;52.314;8.910;2022-10-16T07:02:33;2.25;;;1.30;;
30307;SDS011;17114;52.314;8.910;2022-10-16T07:04:59;3.78;;;1.25;;
30307;SDS011;17114;52.314;8.910;2022-10-16T07:07:26;4.35;;;1.30;;
30307;SDS011;17114;52.314;8.910;2022-10-16T07:09:53;3.30;;;1.30;;
30307;SDS011;17114;52.314;8.910;2022-10-16T07:12:20;4.82;;;1.23;;
30307;SDS011;17114;52.314;8.910;2022-10-16T07:14:47;2.65;;;1.33;;
30307;SDS011;17114;52.314;8.910;2022-10-16T07:17:14;2.05;;;1.10;;
30307;SDS011;17114;52.314;8.910;2022-10-16T07:19:41;3.40;;;1.67;;
30307;SDS011;17114;52.314;8.910;2022-10-16T07:22:07;1.90;;;1.17;;
30307;SDS011;17114;52.314;8.910;2022-10-16T07:24:34;3.78;;;1.33;;
30307;SDS011;17114;52.314;8.910;2022-10-16T07:27:01;2.75;;;1.25;;
30307;SDS011;17114;52.314;8.910;2022-10-16T07:29:28;4.55;;;1.20;;
30307;SDS011;17114;52.314;8.910;2022-10-16T07:31:55;1.52;;;0.98;;
30307;SDS011;17114;52.314;8.910;2022-10-16T07:34:22;3.33;;;1.25;;
30307;SDS011;17114;52.314;8.910;2022-10-16T07:36:49;1.38;;;1.10;;
30307;SDS011;17114;52.314;8.910;2022-10-16T07:39:17;2.33;;;1.20;;
30307;SDS011;17114;52.314;8.910;2022-10-16T07:41:44;4.82;;;1.30;;
30307;SDS011;17114;52.314;8.910;2022-10-16T07:44:11;3.38;;;1.77;;
30307;SDS011;17114;52.314;8.910;2022-10-16T07:46:37;2.78;;;1.23;;
30307;SDS011;17114;52.314;8.910;2022-10-16T07:49:04;2.45;;;1.25;;
30307;SDS011;17114;52.314;8.910;2022-10-16T07:51:31;2.78;;;1.23;;
30307;SDS011;17114;52.314;8.910;2022-10-16T07:53:59;2.65;;;1.40;;
30307;SDS011;17114;52.314;8.910;2022-10-16T07:56:26;3.33;;;1.52;;
30307;SDS011;17114;52.314;8.910;2022-10-16T07:58:53;1.98;;;1.30;;
30307;SDS011;17114;52.314;8.910;2022-10-16T08:01:20;3.75;;;1.20;;
30307;SDS011;17114;52.314;8.910;2022-10-16T08:03:49;2.95;;;1.02;;
30307;SDS011;17114;52.314;8.910;2022-10-16T08:06:17;1.75;;;1.00;;
30307;SDS011;17114;52.314;8.910;2022-10-16T08:08:52;1.63;;;1.00;;
30307;SDS011;17114;52.314;8.910;2022-10-16T08:11:19;4.55;;;1.27;;
30307;SDS011;17114;52.314;8.910;2022-10-16T08:13:45;3.80;;;1.30;;
30307;SDS011;17114;52.314;8.910;2022-10-16T08:16:12;4.03;;;1.77;;
30307;SDS011;17114;52.314;8.910;2022-10-16T08:18:40;2.33;;;1.15;;
30307;SDS011;17114;52.314;8.910;2022-10-16T08:21:08;2.78;;;1.13;;
30307;SDS011;17114;52.314;8.910;2022-10-16T08:23:46;2.83;;;1.38;;
30307;SDS011;17114;52.314;8.910;2022-10-16T08:26:22;2.70;;;1.30;;
30307;SDS011;17114;52.314;8.910;2022-10-16T08:28:49;4.05;;;1.08;;
30307;SDS011;17114;52.314;8.910;2022-10-16T08:31:17;3.20;;;1.00;;
30307;SDS011;17114;52.314;8.910;2022-10-16T08:33:45;2.75;;;1.27;;
30307;SDS011;17114;52.314;8.910;2022-10-16T08:36:13;2.70;;;0.93;;
30307;SDS011;17114;52.314;8.910;2022-10-16T08:38:42;3.85;;;1.20;;
30307;SDS011;17114;52.314;8.910;2022-10-16T08:46:50;3.00;;;1.20;;
30307;SDS011;17114;52.314;8.910;2022-10-16T08:49:27;5.07;;;1.33;;
30307;SDS011;17114;52.314;8.910;2022-10-16T08:51:56;2.20;;;1.20;;
30307;SDS011;17114;52.314;8.910;2022-10-16T08:54:34;3.05;;;1.13;;
30307;SDS011;17114;52.314;8.910;2022-10-16T08:59:54;3.55;;;1.17;;
30307;SDS011;17114;52.314;8.910;2022-10-16T09:05:10;4.90;;;1.27;;
30307;SDS011;17114;52.314;8.910;2022-10-16T09:10:29;2.00;;;1.15;;
30307;SDS011;17114;52.314;8.910;2022-10-16T09:16:05;5.05;;;1.33;;
30307;SDS011;17114;52.314;8.910;2022-10-16T09:21:42;3.58;;;1.30;;
30307;SDS011;17114;52.314;8.910;2022-10-16T09:24:12;3.88;;;1.05;;
30307;SDS011;17114;52.314;8.910;2022-10-16T09:26:43;2.75;;;1.08;;
30307;SDS011;17114;52.314;8.910;2022-10-16T09:29:13;3.55;;;1.15;;
30307;SDS011;17114;52.314;8.910;2022-10-16T09:31:42;2.47;;;1.25;;
30307;SDS011;17114;52.314;8.910;2022-10-16T09:34:13;4.70;;;1.20;;
30307;SDS011;17114;52.314;8.910;2022-10-16T09:37:08;5.93;;;1.55;;
30307;SDS011;17114;52.314;8.910;2022-10-16T09:39:45;3.53;;;1.40;;
30307;SDS011;17114;52.314;8.910;2022-10-16T09:44:41;4.78;;;1.70;;
30307;SDS011;17114;52.314;8.910;2022-10-16T09:47:15;7.93;;;1.60;;
30307;SDS011;17114;52.314;8.910;2022-10-16T09:49:55;2.10;;;1.48;;
30307;SDS011;17114;52.314;8.910;2022-10-16T09:52:25;6.72;;;1.50;;
30307;SDS011;17114;52.314;8.910;2022-10-16T09:54:53;4.32;;;1.48;;
30307;SDS011;17114;52.314;8.910;2022-10-16T09:57:21;4.00;;;1.40;;
30307;SDS011;17114;52.314;8.910;2022-10-16T09:59:53;5.82;;;1.70;;
30307;SDS011;17114;52.314;8.910;2022-10-16T10:02:33;4.97;;;1.60;;
30307;SDS011;17114;52.314;8.910;2022-10-16T10:05:02;3.92;;;1.02;;
30307;SDS011;17114;52.314;8.910;2022-10-16T10:07:33;2.67;;;1.33;;
30307;SDS011;17114;52.314;8.910;2022-10-16T10:10:05;2.33;;;1.48;;
30307;SDS011;17114;52.314;8.910;2022-10-16T10:12:49;6.28;;;1.42;;
30307;SDS011;17114;52.314;8.910;2022-10-16T10:15:16;4.38;;;1.42;;
30307;SDS011;17114;52.314;8.910;2022-10-16T10:17:51;5.43;;;1.23;;
30307;SDS011;17114;52.314;8.910;2022-10-16T10:20:30;7.57;;;1.90;;
30307;SDS011;17114;52.314;8.910;2022-10-16T10:23:01;3.90;;;1.30;;
30307;SDS011;17114;52.314;8.910;2022-10-16T10:25:49;7.22;;;1.27;;
30307;SDS011;17114;52.314;8.910;2022-10-16T10:28:32;2.92;;;1.15;;
30307;SDS011;17114;52.314;8.910;2022-10-16T10:31:14;4.00;;;1.20;;
30307;SDS011;17114;52.314;8.910;2022-10-16T10:33:47;3.45;;;1.15;;
30307;SDS011;17114;52.314;8.910;2022-10-16T10:36:34;7.22;;;1.70;;
30307;SDS011;17114;52.314;8.910;2022-10-16T10:50:52;4.28;;;1.30;;
30307;SDS011;17114;52.314;8.910;2022-10-16T10:56:21;3.80;;;1.00;;
30307;SDS011;17114;52.314;8.910;2022-10-16T11:07:32;4.53;;;1.10;;
30307;SDS011;17114;52.314;8.910;2022-10-16T11:10:24;6.63;;;1.40;;
30307;SDS011;17114;52.314;8.910;2022-10-16T11:12:57;5.10;;;1.40;;
30307;SDS011;17114;52.314;8.910;2022-10-16T11:15:35;6.43;;;1.58;;
30307;SDS011;17114;52.314;8.910;2022-10-16T11:18:08;5.80;;;1.30;;
30307;SDS011;17114;52.314;8.910;2022-10-16T11:20:46;5.88;;;1.27;;
30307;SDS011;17114;52.314;8.910;2022-10-16T11:25:56;3.05;;;1.15;;
30307;SDS011;17114;52.314;8.910;2022-10-16T11:28:28;4.30;;;1.33;;
30307;SDS011;17114;52.314;8.910;2022-10-16T11:32:05;2.70;;;1.25;;
30307;SDS011;17114;52.314;8.910;2022-10-16T11:36:35;6.25;;;1.50;;
30307;SDS011;17114;52.314;8.910;2022-10-16T11:39:24;3.60;;;1.13;;
30307;SDS011;17114;52.314;8.910;2022-10-16T11:47:30;7.80;;;1.50;;
30307;SDS011;17114;52.314;8.910;2022-10-16T11:56:11;3.78;;;1.10;;
30307;SDS011;17114;52.314;8.910;2022-10-16T11:58:50;2.25;;;0.98;;
30307;SDS011;17114;52.314;8.910;2022-10-16T12:01:43;4.38;;;1.40;;
30307;SDS011;17114;52.314;8.910;2022-10-16T12:04:32;4.65;;;1.42;;
30307;SDS011;17114;52.314;8.910;2022-10-16T12:07:18;3.92;;;1.00;;
30307;SDS011;17114;52.314;8.910;2022-10-16T12:09:49;4.28;;;1.40;;
30307;SDS011;17114;52.314;8.910;2022-10-16T12:12:49;6.20;;;1.30;;
30307;SDS011;17114;52.314;8.910;2022-10-16T12:15:19;4.55;;;1.02;;
30307;SDS011;17114;52.314;8.910;2022-10-16T12:18:20;3.05;;;1.20;;
30307;SDS011;17114;52.314;8.910;2022-10-16T12:20:58;2.28;;;1.20;;
30307;SDS011;17114;52.314;8.910;2022-10-16T12:23:31;4.68;;;1.27;;
30307;SDS011;17114;52.314;8.910;2022-10-16T12:26:14;3.25;;;1.13;;
30307;SDS011;17114;52.314;8.910;2022-10-16T12:28:54;3.15;;;1.33;;
30307;SDS011;17114;52.314;8.910;2022-10-16T12:31:23;5.47;;;1.10;;
30307;SDS011;17114;52.314;8.910;2022-10-16T12:34:05;5.30;;;1.10;;
30307;SDS011;17114;52.314;8.910;2022-10-16T12:36:32;3.95;;;1.10;;
30307;SDS011;17114;52.314;8.910;2022-10-16T12:39:01;3.28;;;1.00;;
30307;SDS011;17114;52.314;8.910;2022-10-16T12:41:29;5.00;;;1.20;;
30307;SDS011;17114;52.314;8.910;2022-10-16T12:43:59;4.22;;;1.40;;
30307;SDS011;17114;52.314;8.910;2022-10-16T12:51:38;5.03;;;1.52;;
30307;SDS011;17114;52.314;8.910;2022-10-16T13:19:25;4.35;;;1.13;;
30307;SDS011;17114;52.314;8.910;2022-10-16T13:22:13;5.88;;;1.50;;
30307;SDS011;17114;52.314;8.910;2022-10-16T13:25:04;5.30;;;1.80;;
30307;SDS011;17114;52.314;8.910;2022-10-16T13:27:51;4.15;;;1.73;;
30307;SDS011;17114;52.314;8.910;2022-10-16T13:30:26;6.53;;;2.00;;
30307;SDS011;17114;52.314;8.910;2022-10-16T13:35:27;4.75;;;1.30;;
30307;SDS011;17114;52.314;8.910;2022-10-16T13:46:16;4.60;;;1.20;;
30307;SDS011;17114;52.314;8.910;2022-10-16T13:48:44;3.42;;;1.17;;
30307;SDS011;17114;52.314;8.910;2022-10-16T13:51:23;2.78;;;1.20;;
30307;SDS011;17114;52.314;8.910;2022-10-16T13:53:50;1.40;;;0.90;;
30307;SDS011;17114;52.314;8.910;2022-10-16T13:56:18;1.20;;;0.90;;
30307;SDS011;17114;52.314;8.910;2022-10-16T13:58:57;2.65;;;1.02;;
30307;SDS011;17114;52.314;8.910;2022-10-16T14:01:40;2.08;;;0.80;;
30307;SDS011;17114;52.314;8.910;2022-10-16T14:04:09;4.65;;;1.30;;
30307;SDS011;17114;52.314;8.910;2022-10-16T14:06:42;5.75;;;1.00;;
30307;SDS011;17114;52.314;8.910;2022-10-16T14:11:56;3.10;;;1.00;;
30307;SDS011;17114;52.314;8.910;2022-10-16T14:14:27;3.72;;;1.15;;
30307;SDS011;17114;52.314;8.910;2022-10-16T14:20:12;5.65;;;1.02;;
30307;SDS011;17114;52.314;8.910;2022-10-16T14:22:42;3.80;;;1.20;;
30307;SDS011;17114;52.314;8.910;2022-10-16T14:27:56;2.08;;;1.05;;
30307;SDS011;17114;52.314;8.910;2022-10-16T14:30:34;2.55;;;1.00;;
30307;SDS011;17114;52.314;8.910;2022-10-16T14:33:03;5.90;;;1.30;;
30307;SDS011;17114;52.314;8.910;2022-10-16T14:35:36;2.47;;;1.02;;
30307;SDS011;17114;52.314;8.910;2022-10-16T14:38:06;4.13;;;1.40;;
30307;SDS011;17114;52.314;8.910;2022-10-16T14:40:46;3.22;;;1.40;;
30307;SDS011;17114;52.314;8.910;2022-10-16T14:44:00;4.43;;;1.23;;
30307;SDS011;17114;52.314;8.910;2022-10-16T14:46:12;5.25;;;1.33;;
30307;SDS011;17114;52.314;8.910;2022-10-16T14:48:45;5.38;;;1.40;;
30307;SDS011;17114;52.314;8.910;2022-10-16T14:51:15;3.92;;;1.00;;
30307;SDS011;17114;52.314;8.910;2022-10-16T14:53:44;2.63;;;1.00;;
30307;SDS011;17114;52.314;8.910;2022-10-16T14:56:22;3.63;;;0.93;;
30307;SDS011;17114;52.314;8.910;2022-10-16T14:58:51;2.10;;;1.10;;
30307;SDS011;17114;52.314;8.910;2022-10-16T15:01:18;5.40;;;1.48;;
30307;SDS011;17114;52.314;8.910;2022-10-16T15:03:46;5.05;;;2.05;;
30307;SDS011;17114;52.314;8.910;2022-10-16T15:06:14;3.08;;;1.60;;
30307;SDS011;17114;52.314;8.910;2022-10-16T15:08:41;7.25;;;1.40;;
30307;SDS011;17114;52.314;8.910;2022-10-16T15:11:16;6.35;;;1.70;;
30307;SDS011;17114;52.314;8.910;2022-10-16T15:16:12;3.45;;;1.27;;
30307;SDS011;17114;52.314;8.910;2022-10-16T15:18:43;2.17;;;1.20;;
30307;SDS011;17114;52.314;8.910;2022-10-16T15:21:31;3.80;;;1.10;;
30307;SDS011;17114;52.314;8.910;2022-10-16T15:23:58;3.63;;;1.17;;
30307;SDS011;17114;52.314;8.910;2022-10-16T15:26:26;5.55;;;1.25;;
30307;SDS011;17114;52.314;8.910;2022-10-16T15:28:54;3.83;;;1.23;;
30307;SDS011;17114;52.314;8.910;2022-10-16T15:31:21;2.78;;;1.25;;
30307;SDS011;17114;52.314;8.910;2022-10-16T15:33:50;3.67;;;1.40;;
30307;SDS011;17114;52.314;8.910;2022-10-16T15:36:27;3.17;;;1.35;;
30307;SDS011;17114;52.314;8.910;2022-10-16T15:38:55;2.67;;;1.27;;
30307;SDS011;17114;52.314;8.910;2022-10-16T15:41:23;5.45;;;1.70;;
30307;SDS011;17114;52.314;8.910;2022-10-16T15:43:50;4.50;;;1.23;;
30307;SDS011;17114;52.314;8.910;2022-10-16T15:46:18;6.13;;;1.50;;
30307;SDS011;17114;52.314;8.910;2022-10-16T15:48:47;3.35;;;1.90;;
30307;SDS011;17114;52.314;8.910;2022-10-16T15:51:15;4.30;;;1.60;;
30307;SDS011;17114;52.314;8.910;2022-10-16T15:53:43;2.60;;;1.40;;
30307;SDS011;17114;52.314;8.910;2022-10-16T15:56:12;3.22;;;1.63;;
30307;SDS011;17114;52.314;8.910;2022-10-16T15:58:40;4.78;;;1.70;;
30307;SDS011;17114;52.314;8.910;2022-10-16T16:01:07;2.72;;;1.52;;
30307;SDS011;17114;52.314;8.910;2022-10-16T16:03:37;3.30;;;1.65;;
30307;SDS011;17114;52.314;8.910;2022-10-16T16:06:07;4.53;;;1.65;;
30307;SDS011;17114;52.314;8.910;2022-10-16T16:08:36;4.93;;;1.80;;
30307;SDS011;17114;52.314;8.910;2022-10-16T16:11:04;4.03;;;1.90;;
30307;SDS011;17114;52.314;8.910;2022-10-16T16:13:34;3.45;;;1.92;;
30307;SDS011;17114;52.314;8.910;2022-10-16T16:16:07;3.80;;;2.00;;
30307;SDS011;17114;52.314;8.910;2022-10-16T16:18:35;3.42;;;1.70;;
30307;SDS011;17114;52.314;8.910;2022-10-16T16:21:02;2.78;;;2.10;;
30307;SDS011;17114;52.314;8.910;2022-10-16T16:23:29;3.42;;;1.88;;
30307;SDS011;17114;52.314;8.910;2022-10-16T16:26:04;5.45;;;2.05;;
30307;SDS011;17114;52.314;8.910;2022-10-16T16:28:38;5.15;;;1.85;;
30307;SDS011;17114;52.314;8.910;2022-10-16T16:31:05;7.45;;;2.03;;
30307;SDS011;17114;52.314;8.910;2022-10-16T16:33:33;5.30;;;2.33;;
30307;SDS011;17114;52.314;8.910;2022-10-16T16:36:02;3.03;;;2.22;;
30307;SDS011;17114;52.314;8.910;2022-10-16T16:38:35;5.33;;;2.40;;
30307;SDS011;17114;52.314;8.910;2022-10-16T16:41:12;5.20;;;2.38;;
30307;SDS011;17114;52.314;8.910;2022-10-16T16:43:47;5.47;;;2.55;;
30307;SDS011;17114;52.314;8.910;2022-10-16T16:46:14;5.40;;;2.83;;
30307;SDS011;17114;52.314;8.910;2022-10-16T16:48:42;4.85;;;2.60;;
30307;SDS011;17114;52.314;8.910;2022-10-16T16:51:11;5.60;;;2.80;;
30307;SDS011;17114;52.314;8.910;2022-10-16T16:53:43;6.63;;;4.10;;
30307;SDS011;17114;52.314;8.910;2022-10-16T16:56:11;7.43;;;4.32;;
30307;SDS011;17114;52.314;8.910;2022-10-16T16:58:39;6.65;;;4.60;;
30307;SDS011;17114;52.314;8.910;2022-10-16T17:01:10;6.03;;;4.65;;
30307;SDS011;17114;52.314;8.910;2022-10-16T17:03:47;11.70;;;6.57;;
30307;SDS011;17114;52.314;8.910;2022-10-16T17:06:16;7.40;;;5.55;;
30307;SDS011;17114;52.314;8.910;2022-10-16T17:08:46;8.18;;;5.82;;
30307;SDS011;17114;52.314;8.910;2022-10-16T17:11:15;12.75;;;5.65;;
30307;SDS011;17114;52.314;8.910;2022-10-16T17:13:43;9.15;;;5.53;;